首页
METAR-TAF:

METAR-TAF

机场 :

图勒, 格陵兰

图勒空军基地

纬度: 76-32N, 经度: 068-42W, 海拔: 77米

当前天气观测

该预报发布于46分钟前的05:56 UTC
风速6节,风向东转东南
温度 -23°C
湿度 84%
气压 1012 hPa
能见度10公里或以上
天空无云

METAR: BGTL 200556Z AUTO 11006KT 9999 CLR M23/M25 A2988 RMK AO2 SLP111 T12301252 11228 21261 57015 TSNO $

时间: 02:42 (06:42 UTC)

预报

该预报发布于11小时和52分钟前的18:50 UTC
预报有效从19日的 18点(UTC)到 20日的 24点(UTC)
风速6节,风向东转东南,在之间变化
能見度: 8000
散云层高于200英尺
轻雾
短暂存在
从 19日的 18点(UTC)到 19日的 21点(UTC)
多云层高于300英尺
成为
从 19日的 21点(UTC)到 19日的 22点(UTC)
风速6节,风向东转东南,在之间变化
能見度: 2202
天空无云

TAF: BGTL 191850Z 1918/2024 12006KT 8000 BR SCT002 QNH2998INS WND 100V170 TEMPO 1918/1921 BKN003 BECMG 1921/1922 12006KT 9999 NSW SKC QNH2998INS WND 100V170 TXM16/2014Z TNM25/1918Z LAST NO AMDS AFT 1920 NEXT 2202

超过4000个机场的气象观测和天气预报(METAR&TAF报告)。

可查询的气象台以黄色和红色小点在地图上表示。

将鼠标移到小点上方,可查看气象台名称。

然后点击查看天气观测和预报。

如需切换地图:点击带黑十字的绿色按钮放大地图;点击带横线的绿色按钮缩小地图;或者点击绿色箭头查看邻近地区的地图。


METAR-TAF: